Pagina principale
METAR-TAF:

METAR-TAF

Aeroporti :

Aeroporto di Brescia-Ghedi

Brescia Ghedi, Italia

latitudine: 45-25N, longitudine: 010-17E, altezza: 102 m

Osservazione

Il bollettino è stato emesso 39 minuti fa, alle 14:55 UTC
Vento 3 kt da sud
Temperature 29°C
Umidità 37%
Pressione 1013 hPa
Visibilità 10 km o più
nessuna nube inferiore a 1500 m e nessun cumulonembo

METAR: LIPL 131455Z 17003KT CAVOK 29/13 Q1013 RMK SKC VIS MIN 9999 WIND THR31 25005KT WIND THR13 25004KT BLU

Ora: 17:34 (15:34 UTC)

Previsione

Il bollettino è stato emesso 1 ora e 34 minuti fa, alle 14:00 UTC
Previsione valida dal 13 alle 15 UTC al 13 alle 24 UTC
Vento 5 kt da sud
Visibilità 10 km o più
nessuna nube inferiore a 1500 m e nessun cumulonembo

TAF: LIPL 131400Z 1315/1324 18005KT CAVOK

Osservazioni e previsioni meteorologiche di più di 4000 aeroporti (messaggi METAR e TAF).

Le stazioni disponibili sono rappresentate dai dischi gialli e rossi sulla carta.

Puntare il mouse per vedere il nome della stazione.

Clicca sopra per visualizzare le osservazioni e previsioni meteorologiche.

Per cambiare la mappa : fare clic sui pulsanti verdi con una croce nera per ingrandire, il pulsante verde con un trattino per diminuire, o sulla freccia verde per le mappe adiacenti.


METAR-TAF: